Time;durP1;ratioP1;P1;durP2;ratioP2;P2;SDS_P1;SDS_P2;PMS_P1;PMS_P2;Temp;Humidity;BMP_temperature;BMP_pressure;BME280_temperature;BME280_humidity;BME280_pressure;Samples;Min_cycle;Max_cycle;Signal;HPM_P1;HPM_P2
2022/09/20 00:02:37;;;;;;;9.23;1.43;;;;;;;7.46;100.00;101259.25;5999198;28;20041;-65
2022/09/20 00:05:37;;;;;;;4.83;1.50;;;;;;;7.45;100.00;101252.28;5999333;28;20046;-65
2022/09/20 00:08:33;;;;;;;2.75;1.10;;;;;;;7.42;100.00;101244.63;5999405;28;20098;-65
2022/09/20 00:11:30;;;;;;;7.75;1.58;;;;;;;7.48;100.00;101257.34;5998626;28;20058;-66
2022/09/20 00:14:26;;;;;;;4.78;1.48;;;;;;;7.48;100.00;101262.63;5999374;28;20088;-66
2022/09/20 00:17:21;;;;;;;3.30;1.17;;;;;;;7.37;100.00;101254.66;5998937;28;20038;-65
2022/09/20 00:20:17;;;;;;;14.50;1.70;;;;;;;7.37;100.00;101258.13;5997977;28;20451;-66
2022/09/20 00:23:12;;;;;;;5.83;1.23;;;;;;;7.29;100.00;101246.47;5999136;28;20109;-66
2022/09/20 00:26:07;;;;;;;5.38;1.20;;;;;;;7.30;100.00;101254.28;5999175;28;20054;-65
2022/09/20 00:29:04;;;;;;;7.83;1.83;;;;;;;7.31;100.00;101250.66;5999243;28;20042;-65
2022/09/20 00:31:59;;;;;;;8.13;1.33;;;;;;;7.36;100.00;101255.63;5998341;28;20034;-65
2022/09/20 00:35:06;;;;;;;7.27;1.90;;;;;;;7.42;100.00;101261.28;5998445;28;20533;-66
2022/09/20 00:38:01;;;;;;;7.50;1.73;;;;;;;7.45;100.00;101270.75;5999185;28;20112;-65
2022/09/20 00:40:57;;;;;;;3.43;1.30;;;;;;;7.35;100.00;101261.84;5998225;28;20038;-65
2022/09/20 00:43:53;;;;;;;7.47;1.53;;;;;;;7.46;100.00;101262.75;6006897;28;20083;-65
2022/09/20 00:46:48;;;;;;;4.03;1.30;;;;;;;7.46;100.00;101259.25;6006615;28;20543;-65
2022/09/20 00:49:44;;;;;;;6.28;1.40;;;;;;;7.51;100.00;101270.31;6006548;28;20039;-65
2022/09/20 00:52:43;;;;;;;4.45;1.30;;;;;;;7.49;100.00;101274.88;6005747;28;20073;-66
2022/09/20 00:55:44;;;;;;;9.57;1.73;;;;;;;7.43;100.00;101260.34;6004998;28;20035;-66
2022/09/20 00:59:01;;;;;;;14.15;1.80;;;;;;;7.59;100.00;101282.00;6004832;28;20177;-65
2022/09/20 01:02:05;;;;;;;6.35;1.52;;;;;;;7.66;100.00;101282.41;6004745;28;20047;-66
2022/09/20 01:05:00;;;;;;;7.20;1.75;;;;;;;7.66;100.00;101279.75;6006238;28;20045;-66
2022/09/20 01:07:55;;;;;;;8.40;2.22;;;;;;;7.63;100.00;101282.63;6005902;28;20038;-66
2022/09/20 01:10:51;;;;;;;7.60;1.77;;;;;;;7.61;100.00;101284.53;6005562;28;20037;-65
2022/09/20 01:13:47;;;;;;;5.93;1.52;;;;;;;7.63;100.00;101280.84;6005132;28;20378;-66
2022/09/20 01:16:42;;;;;;;9.32;1.48;;;;;;;7.73;100.00;101273.06;6006288;28;20034;-66
2022/09/20 01:20:06;;;;;;;9.40;1.63;;;;;;;7.75;100.00;101276.41;6005784;28;20058;-66
2022/09/20 01:23:33;;;;;;;7.68;2.45;;;;;;;7.76;100.00;101278.97;6005961;28;20035;-65
2022/09/20 01:26:33;;;;;;;9.35;1.83;;;;;;;7.80;100.00;101280.41;5983421;28;20569;-65
2022/09/20 01:29:49;;;;;;;10.50;2.05;;;;;;;7.87;100.00;101282.59;6005050;28;20053;-65
2022/09/20 01:32:53;;;;;;;8.75;2.08;;;;;;;7.90;100.00;101280.56;6005781;28;20485;-65
2022/09/20 01:35:50;;;;;;;8.43;2.08;;;;;;;7.93;100.00;101275.06;6006563;28;20039;-66
2022/09/20 01:38:57;;;;;;;4.60;1.83;;;;;;;7.99;100.00;101277.22;6004540;28;20041;-65
2022/09/20 01:42:01;;;;;;;6.22;1.42;;;;;;;8.10;100.00;101289.66;6004079;28;20394;-66
2022/09/20 01:45:00;;;;;;;7.72;1.90;;;;;;;8.12;100.00;101291.22;6005979;28;20046;-65
2022/09/20 01:48:13;;;;;;;10.57;2.00;;;;;;;8.06;100.00;101274.97;6004914;28;20423;-65
2022/09/20 01:51:43;;;;;;;5.75;2.10;;;;;;;8.13;100.00;101276.19;6005221;28;20050;-66
2022/09/20 01:55:14;;;;;;;11.98;2.28;;;;;;;8.21;100.00;101290.50;6002663;28;20031;-65
2022/09/20 01:58:31;;;;;;;7.18;1.83;;;;;;;8.24;100.00;101297.34;5980198;28;20057;-65
2022/09/20 02:01:50;;;;;;;6.72;1.70;;;;;;;8.25;100.00;101291.09;6000383;28;20525;-66
2022/09/20 02:05:09;;;;;;;9.52;1.90;;;;;;;8.24;100.00;101300.81;6002308;28;20027;-66
2022/09/20 02:08:04;;;;;;;8.07;2.00;;;;;;;8.27;100.00;101292.72;6000396;28;20390;-66
2022/09/20 02:11:06;;;;;;;9.23;2.50;;;;;;;8.22;100.00;101286.06;6001246;28;20501;-65
2022/09/20 02:14:16;;;;;;;7.40;1.95;;;;;;;8.35;100.00;101302.69;6000654;28;20118;-65
2022/09/20 02:17:16;;;;;;;13.98;3.00;;;;;;;8.28;100.00;101289.13;6002195;28;20031;-65
2022/09/20 02:20:43;;;;;;;5.20;1.73;;;;;;;8.35;100.00;101308.81;6001481;28;20027;-65
2022/09/20 02:24:00;;;;;;;12.15;2.05;;;;;;;8.36;100.00;101302.59;6000451;28;20042;-65
2022/09/20 02:27:01;;;;;;;9.80;2.10;;;;;;;8.40;100.00;101303.16;6000348;28;20093;-66
2022/09/20 02:30:04;;;;;;;5.47;1.88;;;;;;;8.46;100.00;101309.78;6001575;28;20031;-65
2022/09/20 02:33:21;;;;;;;9.20;2.45;;;;;;;8.41;100.00;101311.94;6000184;28;20055;-65
2022/09/20 02:36:21;;;;;;;5.78;2.00;;;;;;;8.49;100.00;101312.19;6001660;28;20145;-65
2022/09/20 02:39:20;;;;;;;10.15;2.20;;;;;;;8.38;100.00;101300.66;5999706;28;20050;-65
2022/09/20 02:42:29;;;;;;;13.48;3.05;;;;;;;8.48;100.00;101319.28;5999813;28;20121;-65
2022/09/20 02:45:31;;;;;;;9.55;3.05;;;;;;;8.55;100.00;101309.09;6000247;28;20039;-65
2022/09/20 02:48:36;;;;;;;15.75;3.65;;;;;;;8.55;100.00;101317.03;6000258;28;20529;-65
2022/09/20 02:52:16;;;;;;;16.25;4.00;;;;;;;8.59;100.00;101321.94;6013628;28;20731;-65
2022/09/20 02:55:24;;;;;;;15.63;4.68;;;;;;;8.53;100.00;101298.66;5951341;29;20039;-65
2022/09/20 02:58:49;;;;;;;12.85;4.22;;;;;;;8.67;100.00;101314.25;5950310;29;20082;-65
2022/09/20 03:02:13;;;;;;;17.02;5.30;;;;;;;8.66;100.00;101319.69;6000353;28;20031;-65
2022/09/20 03:05:23;;;;;;;17.95;4.85;;;;;;;8.65;100.00;101320.63;5998690;28;20381;-65
2022/09/20 03:08:32;;;;;;;19.42;6.72;;;;;;;8.54;100.00;101310.03;5999437;28;20043;-65
2022/09/20 03:11:46;;;;;;;15.70;6.07;;;;;;;8.53;100.00;101305.72;5999159;28;20397;-65
2022/09/20 03:14:46;;;;;;;;;;;;;;;8.62;100.00;101320.84;5999548;28;20031;-65
2022/09/20 03:18:08;;;;;;;21.98;6.63;;;;;;;8.63;100.00;101322.56;6015053;28;19921;-65
2022/09/20 03:21:40;;;;;;;23.42;6.25;;;;;;;8.62;100.00;101326.16;5998434;28;20045;-65
2022/09/20 03:25:03;;;;;;;17.98;6.55;;;;;;;8.60;100.00;101333.34;6000347;28;20121;-64
2022/09/20 03:28:29;;;;;;;20.27;6.70;;;;;;;8.58;100.00;101332.66;6000541;28;20045;-65
2022/09/20 03:31:46;;;;;;;14.15;5.07;;;;;;;8.58;100.00;101335.28;5999588;28;20072;-65
2022/09/20 03:34:48;;;;;;;15.18;5.80;;;;;;;8.58;100.00;101330.84;6000107;28;20039;-65
2022/09/20 03:38:15;;;;;;;18.17;5.25;;;;;;;8.61;100.00;101335.91;5991330;28;20735;-65
2022/09/20 03:41:23;;;;;;;16.13;5.60;;;;;;;8.48;100.00;101318.47;5966956;28;20050;-65
2022/09/20 03:44:44;;;;;;;16.63;5.15;;;;;;;8.51;100.00;101324.34;5999758;28;20089;-65
2022/09/20 03:47:58;;;;;;;21.25;6.20;;;;;;;8.54;100.00;101347.03;5996371;28;20390;-65
2022/09/20 03:51:09;;;;;;;24.33;6.60;;;;;;;8.54;100.00;101344.41;5999346;28;20157;-65
2022/09/20 03:54:33;;;;;;;19.48;6.43;;;;;;;8.54;100.00;101339.97;5999764;28;20030;-65
2022/09/20 03:57:49;;;;;;;14.48;5.63;;;;;;;8.55;100.00;101346.09;5998637;28;20034;-65
2022/09/20 04:01:03;;;;;;;17.85;6.03;;;;;;;8.62;100.00;101347.28;5997763;28;20043;-65
2022/09/20 04:04:32;;;;;;;17.08;5.95;;;;;;;8.58;100.00;101345.88;5998224;28;20034;-65
2022/09/20 04:07:52;;;;;;;22.85;5.85;;;;;;;8.58;100.00;101349.34;5998694;28;20030;-65
2022/09/20 04:11:07;;;;;;;14.73;6.13;;;;;;;8.61;100.00;101350.91;5998586;28;20790;-65
2022/09/20 04:14:26;;;;;;;21.75;6.03;;;;;;;8.60;100.00;101343.94;5999572;28;20704;-65
2022/09/20 04:17:40;;;;;;;17.50;6.40;;;;;;;8.55;100.00;101348.75;5997563;28;20027;-65
2022/09/20 04:20:46;;;;;;;27.35;7.18;;;;;;;8.60;100.00;101350.06;5998811;28;20053;-65
2022/09/20 04:23:59;;;;;;;14.68;5.88;;;;;;;8.63;100.00;101359.56;5997650;28;20489;-65
2022/09/20 04:27:17;;;;;;;19.23;5.93;;;;;;;8.63;100.00;101349.00;6008092;28;20038;-65
2022/09/20 04:30:20;;;;;;;20.98;6.80;;;;;;;8.75;100.00;101370.03;6003682;28;20027;-65
2022/09/20 04:33:29;;;;;;;24.70;7.70;;;;;;;8.76;100.00;101370.88;5998800;28;20475;-65
2022/09/20 04:36:34;;;;;;;22.92;7.32;;;;;;;8.70;100.00;101360.75;5997536;28;20410;-65
2022/09/20 04:39:32;;;;;;;18.95;7.00;;;;;;;8.64;100.00;101345.41;5999155;28;20038;-65
2022/09/20 04:43:06;;;;;;;19.48;7.60;;;;;;;8.70;100.00;101366.06;5998168;28;20371;-65
2022/09/20 04:46:15;;;;;;;21.63;7.15;;;;;;;8.66;100.00;101360.19;5999274;28;20042;-65
2022/09/20 04:49:32;;;;;;;17.13;7.30;;;;;;;8.81;100.00;101384.59;5999158;28;20047;-65
2022/09/20 04:52:55;;;;;;;23.10;7.65;;;;;;;8.84;100.00;101387.00;5998059;28;20038;-67
2022/09/20 04:56:13;;;;;;;21.60;7.25;;;;;;;8.75;100.00;101369.22;5998476;28;20059;-65
2022/09/20 04:59:19;;;;;;;19.85;7.65;;;;;;;8.81;100.00;101379.28;5998684;28;20034;-65
2022/09/20 05:02:21;;;;;;;22.20;7.78;;;;;;;8.85;100.00;101380.75;5998641;28;20027;-65
2022/09/20 05:05:34;;;;;;;20.65;7.03;;;;;;;8.89;100.00;101384.84;5998256;28;20046;-65
2022/09/20 05:08:51;;;;;;;16.45;6.50;;;;;;;8.85;100.00;101376.31;5990429;28;20030;-64
2022/09/20 05:11:52;;;;;;;17.17;6.35;;;;;;;8.97;100.00;101390.38;5997504;28;20449;-64
2022/09/20 05:14:59;;;;;;;22.85;6.95;;;;;;;8.95;100.00;101381.72;5998510;28;20101;-64
2022/09/20 05:17:54;;;;;;;;;;;;;;;8.97;100.00;101395.66;5998780;28;20035;-65
2022/09/20 05:21:12;;;;;;;17.53;7.17;;;;;;;8.85;100.00;101381.59;5998001;28;19958;-65
2022/09/20 05:24:37;;;;;;;26.15;7.95;;;;;;;8.94;100.00;101395.94;5996580;28;20039;-65
2022/09/20 05:27:42;;;;;;;17.83;7.60;;;;;;;8.76;100.00;101373.53;5994520;28;20542;-65
2022/09/20 05:30:44;;;;;;;25.85;8.10;;;;;;;8.91;100.00;101394.31;6001876;28;20033;-65
2022/09/20 05:34:18;;;;;;;16.98;6.47;;;;;;;9.04;100.00;101407.47;6002299;28;20109;-65
2022/09/20 05:37:25;;;;;;;15.05;6.82;;;;;;;8.99;100.00;101409.63;5977997;28;20478;-64
2022/09/20 05:40:29;;;;;;;20.38;7.35;;;;;;;8.88;100.00;101399.88;6016884;28;20097;-65
2022/09/20 05:43:28;;;;;;;20.45;6.90;;;;;;;8.88;100.00;101396.38;6001460;28;20090;-65
2022/09/20 05:46:31;;;;;;;21.95;6.80;;;;;;;8.95;100.00;101419.59;6002360;28;20046;-64
2022/09/20 05:49:53;;;;;;;24.05;7.15;;;;;;;8.99;100.00;101407.00;6000737;28;20089;-65
2022/09/20 05:53:08;;;;;;;20.23;6.88;;;;;;;8.91;100.00;101401.44;5997610;28;20062;-65
2022/09/20 05:56:10;;;;;;;21.98;7.80;;;;;;;8.96;100.00;101405.41;6001295;28;20066;-65
2022/09/20 05:59:19;;;;;;;21.38;7.93;;;;;;;8.94;100.00;101404.66;6002319;28;20054;-65
2022/09/20 06:02:27;;;;;;;26.45;8.05;;;;;;;9.03;100.00;101428.72;6000620;28;20045;-64
2022/09/20 06:05:33;;;;;;;17.98;6.82;;;;;;;9.08;100.00;101414.19;6000778;28;20053;-66
2022/09/20 06:08:59;;;;;;;21.48;7.00;;;;;;;9.16;100.00;101432.94;6001134;28;20169;-65
2022/09/20 06:11:59;;;;;;;19.42;6.82;;;;;;;9.10;100.00;101414.09;6000156;28;20046;-65
2022/09/20 06:15:20;;;;;;;21.60;8.18;;;;;;;9.20;100.00;101433.56;6015779;28;20046;-66
2022/09/20 06:18:47;;;;;;;23.95;7.57;;;;;;;9.12;100.00;101426.22;5982961;28;20047;-65
2022/09/20 06:22:14;;;;;;;22.08;7.18;;;;;;;9.26;100.00;101443.69;6001166;28;20078;-65
2022/09/20 06:25:26;;;;;;;15.15;6.70;;;;;;;9.31;100.00;101429.13;5987669;28;20039;-65
2022/09/20 06:28:25;;;;;;;18.20;5.85;;;;;;;9.39;100.00;101439.94;6003621;28;20066;-65
2022/09/20 06:31:20;;;;;;;17.30;6.15;;;;;;;9.48;100.00;101449.78;5998685;28;20065;-65
2022/09/20 06:34:16;;;;;;;14.13;5.83;;;;;;;9.31;100.00;101436.22;6001618;28;20039;-65
2022/09/20 06:44:02;;;;;;;10.60;4.88;;;;;;;9.44;100.00;101448.38;6000156;28;20039;-65
2022/09/20 06:46:58;;;;;;;12.95;4.93;;;;;;;9.41;100.00;101461.00;6001308;28;20033;-66
2022/09/20 06:49:54;;;;;;;9.85;4.78;;;;;;;9.43;100.00;101467.03;6000314;28;20046;-65
2022/09/20 06:52:51;;;;;;;10.32;4.65;;;;;;;9.45;100.00;101468.59;6013613;28;20474;-66
2022/09/20 06:55:48;;;;;;;16.92;4.35;;;;;;;9.41;100.00;101458.34;6003934;28;20482;-66
2022/09/20 06:58:44;;;;;;;14.52;4.60;;;;;;;9.58;100.00;101466.66;5996392;28;20471;-66
2022/09/20 07:01:40;;;;;;;14.00;5.17;;;;;;;9.68;100.00;101473.84;6011461;28;20035;-66
2022/09/20 07:04:35;;;;;;;11.50;3.92;;;;;;;9.77;100.00;101459.91;6005573;28;20457;-66
2022/09/20 07:07:31;;;;;;;9.90;3.47;;;;;;;9.85;100.00;101468.91;6000863;28;20034;-67
2022/09/20 07:10:29;;;;;;;8.27;4.00;;;;;;;10.03;100.00;101461.28;5999847;28;20045;-67
2022/09/20 07:13:25;;;;;;;10.52;3.88;;;;;;;10.15;100.00;101481.53;5999301;28;20084;-66
2022/09/20 07:16:21;;;;;;;10.23;4.00;;;;;;;10.13;100.00;101468.41;6000380;28;20475;-66
2022/09/20 07:19:16;;;;;;;9.25;3.40;;;;;;;10.40;100.00;101477.72;6003331;28;20039;-66
2022/09/20 07:22:11;;;;;;;9.20;2.90;;;;;;;10.48;100.00;101473.47;5999620;28;20390;-66
2022/09/20 07:25:07;;;;;;;8.55;3.45;;;;;;;10.39;100.00;101478.69;6000012;28;20026;-67
2022/09/20 07:28:03;;;;;;;8.23;3.75;;;;;;;10.57;100.00;101483.31;6000164;28;20037;-66
2022/09/20 07:30:59;;;;;;;10.63;3.90;;;;;;;10.56;100.00;101488.75;6002472;28;20363;-67
2022/09/20 07:33:55;;;;;;;7.80;3.22;;;;;;;10.90;100.00;101500.06;6023988;28;20066;-67
2022/09/20 07:36:51;;;;;;;8.90;3.20;;;;;;;10.81;100.00;101487.56;6006206;28;20162;-67
2022/09/20 07:39:46;;;;;;;6.65;3.20;;;;;;;10.83;100.00;101497.06;6000012;28;20446;-66
2022/09/20 07:42:44;;;;;;;6.93;3.07;;;;;;;11.07;100.00;101496.81;6002619;28;20034;-67
2022/09/20 07:45:40;;;;;;;4.65;2.83;;;;;;;11.09;100.00;101502.81;6000224;28;20122;-66
2022/09/20 07:48:36;;;;;;;5.28;3.20;;;;;;;10.91;99.81;101497.25;5999743;28;20039;-67
2022/09/20 07:51:31;;;;;;;8.57;3.17;;;;;;;11.16;98.60;101511.97;5997505;28;20037;-67
2022/09/20 07:54:27;;;;;;;8.48;3.08;;;;;;;11.12;98.17;101494.59;5999071;28;20757;-66
2022/09/20 07:57:22;;;;;;;7.10;3.03;;;;;;;11.40;97.51;101504.56;5999832;28;20387;-67
2022/09/20 08:00:18;;;;;;;7.10;3.17;;;;;;;11.59;96.72;101504.66;5998317;28;20482;-67
2022/09/20 08:03:13;;;;;;;7.87;3.00;;;;;;;11.60;95.59;101505.50;5999597;28;20049;-67
2022/09/20 08:06:10;;;;;;;8.57;2.92;;;;;;;11.52;95.10;101519.44;5999308;28;20310;-66
2022/09/20 08:09:06;;;;;;;7.28;3.13;;;;;;;11.68;95.79;101518.97;5999415;28;20030;-67
2022/09/20 08:12:02;;;;;;;6.05;2.78;;;;;;;11.42;95.12;101509.72;5997925;28;20042;-67
2022/09/20 08:14:58;;;;;;;7.00;3.22;;;;;;;11.57;95.76;101511.06;5998794;28;20058;-66
2022/09/20 08:17:53;;;;;;;10.57;3.60;;;;;;;11.82;95.71;101522.09;6000215;28;20035;-67
2022/09/20 08:20:49;;;;;;;12.43;3.78;;;;;;;11.96;96.09;101522.75;5998454;28;20035;-67
2022/09/20 08:23:49;;;;;;;8.82;4.22;;;;;;;12.17;94.02;101534.97;5998617;28;20503;-66
2022/09/20 08:26:44;;;;;;;9.02;3.78;;;;;;;12.07;93.79;101530.59;5999289;28;20039;-66
2022/09/20 08:29:39;;;;;;;9.63;4.10;;;;;;;12.13;93.82;101522.06;5998464;28;20113;-66
2022/09/20 08:32:37;;;;;;;12.33;3.83;;;;;;;12.04;92.37;101541.50;5998889;28;20049;-67
2022/09/20 08:35:37;;;;;;;8.77;3.72;;;;;;;12.00;93.78;101538.28;5998811;28;20038;-66
2022/09/20 08:38:33;;;;;;;8.90;3.10;;;;;;;11.82;93.20;101546.03;5999098;28;20165;-66
2022/09/20 08:41:41;;;;;;;6.47;3.33;;;;;;;11.85;93.69;101537.78;5998046;28;20121;-66
2022/09/20 08:44:57;;;;;;;7.00;3.60;;;;;;;11.81;93.07;101540.84;5998500;28;20433;-66
2022/09/20 08:47:58;;;;;;;11.13;4.22;;;;;;;11.66;92.58;101547.47;5997606;28;20041;-66
2022/09/20 08:50:53;;;;;;;8.90;3.30;;;;;;;11.86;94.08;101552.78;5997964;28;20039;-66
2022/09/20 08:53:53;;;;;;;8.83;3.57;;;;;;;11.82;91.82;101551.34;5998512;28;20089;-67
2022/09/20 08:56:50;;;;;;;8.40;3.55;;;;;;;12.24;92.38;101554.72;5996754;28;20029;-66
2022/09/20 08:59:46;;;;;;;11.88;3.90;;;;;;;12.75;91.77;101556.31;5998648;28;20042;-66
2022/09/20 09:02:41;;;;;;;7.75;3.63;;;;;;;13.49;89.04;101549.41;5996961;28;20327;-67
2022/09/20 09:05:41;;;;;;;6.10;3.27;;;;;;;14.04;83.42;101561.88;6014739;28;20781;-67
2022/09/20 09:08:37;;;;;;;6.63;3.75;;;;;;;14.10;81.45;101561.28;6002283;28;20073;-66
2022/09/20 09:11:33;;;;;;;5.75;3.38;;;;;;;13.71;83.13;101551.75;6001097;28;20045;-66
2022/09/20 09:14:53;;;;;;;7.60;4.15;;;;;;;13.51;84.08;101563.44;6002837;28;20066;-66
2022/09/20 09:17:49;;;;;;;7.10;3.00;;;;;;;13.29;84.54;101563.78;6006755;28;20486;-67
2022/09/20 09:20:45;;;;;;;6.53;2.53;;;;;;;13.09;84.13;101563.81;6002439;28;20057;-67
2022/09/20 09:23:46;;;;;;;6.95;3.10;;;;;;;13.02;85.01;101559.13;6002963;28;20038;-66
2022/09/20 09:26:42;;;;;;;6.47;2.40;;;;;;;13.01;84.34;101553.00;6001652;28;20049;-67
2022/09/20 09:29:48;;;;;;;5.72;2.33;;;;;;;13.20;82.64;101565.47;6002868;28;20038;-67
2022/09/20 09:32:43;;;;;;;6.93;2.55;;;;;;;13.09;83.15;101558.47;6002191;28;20042;-67
2022/09/20 09:35:39;;;;;;;6.97;2.50;;;;;;;13.16;84.47;101555.22;6002795;28;20039;-66
2022/09/20 09:38:36;;;;;;;5.90;2.10;;;;;;;13.51;82.32;101569.59;6002515;28;20150;-67
2022/09/20 09:41:34;;;;;;;6.18;1.90;;;;;;;13.62;81.43;101576.59;6000706;28;20293;-67
2022/09/20 09:44:32;;;;;;;3.22;1.95;;;;;;;13.68;82.35;101570.69;6002318;28;20137;-66
2022/09/20 09:47:28;;;;;;;6.50;2.25;;;;;;;13.39;80.67;101564.59;6002723;28;20685;-66
2022/09/20 09:50:32;;;;;;;6.63;2.08;;;;;;;13.51;81.54;101560.78;6001717;28;20090;-67
2022/09/20 09:53:27;;;;;;;3.50;2.05;;;;;;;13.60;81.69;101562.56;5990960;28;20381;-67
2022/09/20 09:56:35;;;;;;;5.27;1.73;;;;;;;14.03;81.92;101578.84;6002176;28;20042;-67
2022/09/20 09:59:50;;;;;;;4.88;1.75;;;;;;;14.53;79.74;101552.63;6016327;28;20035;-67
2022/09/20 10:03:17;;;;;;;3.38;1.70;;;;;;;15.22;74.26;101576.78;6002030;28;20474;-67
2022/09/20 10:06:54;;;;;;;8.05;1.48;;;;;;;16.05;72.80;101548.59;6017037;28;20031;-66
2022/09/20 10:10:07;;;;;;;3.13;1.55;;;;;;;15.93;68.94;101565.91;6000053;28;20046;-67
2022/09/20 10:13:12;;;;;;;4.78;1.83;;;;;;;15.42;71.34;101567.59;6002078;28;20038;-66
2022/09/20 10:16:28;;;;;;;3.08;1.70;;;;;;;14.66;74.65;101570.94;6001171;28;20034;-66
2022/09/20 10:20:01;;;;;;;7.47;1.83;;;;;;;14.03;77.68;101576.16;5996264;28;20047;-67
2022/09/20 10:23:31;;;;;;;2.55;0.82;;;;;;;13.41;77.52;101574.13;6001088;28;20133;-66
2022/09/20 10:26:55;;;;;;;3.78;0.85;;;;;;;12.90;78.49;101562.94;6004276;28;20034;-66
2022/09/20 10:30:08;;;;;;;1.67;0.90;;;;;;;12.76;80.56;101566.84;6000137;28;20043;-67
2022/09/20 10:33:30;;;;;;;2.25;0.88;;;;;;;12.96;81.44;101571.19;6001593;28;20034;-67
2022/09/20 10:36:37;;;;;;;1.67;0.70;;;;;;;13.76;79.79;101548.63;6001471;28;20046;-67
2022/09/20 10:39:34;;;;;;;2.92;0.70;;;;;;;14.57;75.24;101559.31;6001367;28;20049;-66
2022/09/20 10:46:27;;;;;;;2.88;0.85;;;;;;;15.18;74.97;101563.91;6000513;28;20437;-67
2022/09/20 10:49:56;;;;;;;2.45;0.80;;;;;;;14.66;76.28;101562.91;6016289;28;20062;-67
2022/09/20 10:53:26;;;;;;;2.80;0.82;;;;;;;14.49;77.54;101572.59;5998925;28;20066;-66
2022/09/20 10:56:36;;;;;;;2.47;0.55;;;;;;;15.11;71.98;101569.00;5992612;28;20038;-67
2022/09/20 10:59:39;;;;;;;3.08;0.60;;;;;;;14.94;70.07;101553.84;6015496;28;20066;-66
2022/09/20 11:02:50;;;;;;;1.42;0.60;;;;;;;14.85;73.36;101557.44;6006345;28;20041;-66
2022/09/20 11:06:20;;;;;;;2.70;0.82;;;;;;;14.72;74.99;101573.84;5996307;28;20133;-67
2022/09/20 11:09:20;;;;;;;6.72;1.25;;;;;;;14.97;77.08;101577.59;5999977;28;20039;-67
2022/09/20 11:12:28;;;;;;;2.88;0.60;;;;;;;15.61;75.93;101579.09;5998682;28;20035;-67
2022/09/20 11:15:28;;;;;;;4.70;0.90;;;;;;;16.11;76.05;101568.53;6005373;28;20061;-67
2022/09/20 11:18:34;;;;;;;4.85;0.70;;;;;;;16.58;74.49;101562.50;5999184;28;20038;-67
2022/09/20 11:21:35;;;;;;;1.50;0.50;;;;;;;16.27;70.87;101574.78;5998598;28;20039;-67
2022/09/20 11:24:35;;;;;;;4.72;0.80;;;;;;;16.02;72.29;101576.50;5999061;28;20070;-67
2022/09/20 11:27:38;;;;;;;5.40;0.80;;;;;;;15.79;70.91;101575.38;5999691;28;20038;-67
2022/09/20 11:30:46;;;;;;;5.43;0.80;;;;;;;15.06;74.91;101570.47;6001397;28;20430;-67
2022/09/20 11:33:52;;;;;;;5.05;1.20;;;;;;;14.26;79.26;101580.16;5998952;28;20125;-67
2022/09/20 11:37:02;;;;;;;3.50;0.70;;;;;;;13.67;81.99;101601.84;5999737;28;20038;-67
2022/09/20 11:40:00;;;;;;;3.22;0.70;;;;;;;13.15;83.12;101589.03;5998471;28;20043;-67
2022/09/20 11:42:57;;;;;;;1.77;0.45;;;;;;;12.77;81.45;101592.50;6014223;28;20042;-67
2022/09/20 11:45:57;;;;;;;0.38;0.28;;;;;;;12.98;84.19;101603.00;6002115;28;20118;-67
2022/09/20 11:48:59;;;;;;;0.77;0.40;;;;;;;12.92;80.89;101588.44;6012257;28;20083;-67
2022/09/20 11:52:19;;;;;;;1.80;0.70;;;;;;;13.46;74.81;101595.00;5999152;28;20172;-66
2022/09/20 11:55:31;;;;;;;1.65;0.52;;;;;;;13.58;77.16;101601.88;5988671;28;20055;-67
2022/09/20 11:58:26;;;;;;;0.43;0.22;;;;;;;13.68;75.49;101602.69;5998564;28;20462;-67
2022/09/20 12:01:28;;;;;;;1.48;0.40;;;;;;;14.23;75.59;101598.28;5997524;28;20054;-67
2022/09/20 12:04:28;;;;;;;2.00;0.50;;;;;;;14.42;73.30;101594.69;6009514;28;20034;-67
2022/09/20 12:07:40;;;;;;;3.95;0.70;;;;;;;14.93;71.66;101594.06;5994953;28;20090;-67
2022/09/20 12:10:38;;;;;;;1.83;0.93;;;;;;;14.72;71.34;101578.34;5996996;28;20027;-67
2022/09/20 12:13:42;;;;;;;1.23;0.50;;;;;;;14.90;73.61;101592.53;5999919;28;20057;-68
2022/09/20 12:16:43;;;;;;;1.95;0.40;;;;;;;14.65;75.07;101595.94;5997775;28;20039;-67
2022/09/20 12:19:39;;;;;;;1.90;0.45;;;;;;;13.88;79.80;101598.13;6009830;28;20117;-66
2022/09/20 12:22:34;;;;;;;2.33;0.40;;;;;;;13.36;82.03;101596.84;5997297;28;20055;-66
2022/09/20 12:25:38;;;;;;;5.90;0.60;;;;;;;13.05;86.03;101598.78;5998120;28;20042;-66
2022/09/20 12:28:37;;;;;;;0.68;0.32;;;;;;;12.71;87.97;101579.72;5999057;28;20470;-66
2022/09/20 12:31:37;;;;;;;2.60;0.50;;;;;;;12.82;88.78;101587.59;5998419;28;20054;-66
2022/09/20 12:34:35;;;;;;;2.45;0.70;;;;;;;13.59;89.34;101571.53;5999122;28;20042;-65
2022/09/20 12:37:30;;;;;;;1.38;0.50;;;;;;;14.09;81.17;101580.09;5998966;28;20037;-66
2022/09/20 12:40:26;;;;;;;2.10;0.80;;;;;;;14.62;74.21;101572.25;5998244;28;20023;-66
2022/09/20 12:43:22;;;;;;;2.10;0.60;;;;;;;15.30;71.67;101566.16;5997386;28;20045;-66
2022/09/20 12:46:24;;;;;;;3.15;0.60;;;;;;;15.91;70.29;101578.63;6003236;28;20528;-66
2022/09/20 12:53:05;;;;;;;4.38;0.93;;;;;;;16.62;68.08;101563.03;5997079;28;20030;-67
2022/09/20 12:56:05;;;;;;;4.93;0.80;;;;;;;16.62;69.27;101553.16;5998561;28;20038;-66
2022/09/20 12:59:04;;;;;;;3.63;1.08;;;;;;;16.73;67.11;101543.13;6013530;28;20023;-66
2022/09/20 13:02:37;;;;;;;4.93;0.90;;;;;;;16.86;67.53;101568.41;5996575;28;20659;-66
2022/09/20 13:05:36;;;;;;;3.05;0.98;;;;;;;16.61;66.61;101572.91;5992592;28;20065;-68
2022/09/20 13:08:48;;;;;;;4.97;0.85;;;;;;;16.37;68.92;101567.44;5991122;28;20046;-67
2022/09/20 13:11:51;;;;;;;4.75;1.15;;;;;;;16.45;70.45;101559.44;5996648;28;20030;-68
2022/09/20 13:14:46;;;;;;;4.43;0.90;;;;;;;16.65;69.21;101568.91;5996712;28;20814;-69
2022/09/20 13:17:42;;;;;;;6.20;1.20;;;;;;;16.67;67.79;101560.69;6001305;28;20054;-68
2022/09/20 13:20:40;;;;;;;6.22;0.88;;;;;;;16.55;65.34;101573.53;5997511;28;20434;-68
2022/09/20 13:23:47;;;;;;;4.55;0.80;;;;;;;16.75;66.06;101573.25;5999036;28;20054;-67
2022/09/20 13:26:44;;;;;;;4.60;0.80;;;;;;;16.85;63.85;101563.25;5997267;28;20046;-66
2022/09/20 13:29:41;;;;;;;4.13;0.47;;;;;;;16.96;62.04;101565.59;5997962;28;20042;-68
2022/09/20 13:32:40;;;;;;;2.83;1.00;;;;;;;17.00;59.96;101564.25;5997752;28;20034;-66
2022/09/20 13:35:35;;;;;;;7.30;0.95;;;;;;;16.97;61.68;101561.91;5998328;28;20050;-66
2022/09/20 13:38:31;;;;;;;2.10;0.53;;;;;;;16.76;59.61;101553.50;6019538;28;20038;-67
2022/09/20 13:41:28;;;;;;;2.45;0.70;;;;;;;16.87;57.42;101558.53;5996490;28;20114;-66
2022/09/20 13:44:24;;;;;;;3.17;0.55;;;;;;;17.16;60.10;101562.41;5996888;28;20035;-67
2022/09/20 13:47:21;;;;;;;3.75;0.60;;;;;;;17.23;58.41;101557.19;5997857;28;20035;-66
2022/09/20 13:50:43;;;;;;;4.30;0.70;;;;;;;17.45;59.65;101572.59;5999224;28;20709;-66
2022/09/20 13:53:38;;;;;;;4.20;0.63;;;;;;;17.23;57.56;101568.75;6005429;28;20088;-67
2022/09/20 13:56:33;;;;;;;0.87;0.30;;;;;;;17.57;57.42;101570.44;6005112;28;20042;-67
2022/09/20 13:59:34;;;;;;;1.10;0.43;;;;;;;17.29;55.43;101556.53;6001846;28;20607;-68
2022/09/20 14:02:31;;;;;;;6.68;0.70;;;;;;;17.43;57.96;101558.53;6001420;28;20694;-68
2022/09/20 14:05:28;;;;;;;3.55;0.90;;;;;;;17.35;58.65;101582.66;6001940;28;20062;-68
2022/09/20 14:08:30;;;;;;;4.85;0.55;;;;;;;16.46;59.98;101573.66;6001067;28;20056;-68
2022/09/20 14:11:28;;;;;;;1.55;0.40;;;;;;;15.62;64.65;101578.13;6001679;28;20031;-68
2022/09/20 14:14:24;;;;;;;0.75;0.40;;;;;;;15.42;67.79;101577.44;6000602;28;20042;-68
2022/09/20 14:17:20;;;;;;;2.47;0.70;;;;;;;15.88;66.45;101585.13;6006363;28;20117;-68
2022/09/20 14:20:16;;;;;;;1.67;0.90;;;;;;;15.87;64.60;101571.94;6001279;28;20114;-68
2022/09/20 14:23:30;;;;;;;3.42;0.32;;;;;;;15.76;63.90;101586.38;6000614;28;20027;-68
2022/09/20 14:26:29;;;;;;;1.15;0.55;;;;;;;15.44;64.83;101603.03;6016751;28;20038;-68
2022/09/20 14:29:33;;;;;;;1.83;0.47;;;;;;;14.88;67.11;101599.88;6004995;28;20113;-68
2022/09/20 14:32:36;;;;;;;3.60;0.47;;;;;;;14.88;67.70;101603.38;6001288;28;20073;-68